Time;durP1;ratioP1;P1;durP2;ratioP2;P2;SDS_P1;SDS_P2;PMS_P1;PMS_P2;Temp;Humidity;BMP_temperature;BMP_pressure;BME280_temperature;BME280_humidity;BME280_pressure;Samples;Min_cycle;Max_cycle;Signal;HPM_P1;HPM_P2
2022/03/15 00:00:09;;;;;;;27.63;17.65;;;;;;;8.06;75.17;102609.50;5013679;28;20436;-74
2022/03/15 00:02:34;;;;;;;27.35;18.35;;;;;;;7.99;75.12;102615.56;5022388;28;20049;-74
2022/03/15 00:05:01;;;;;;;29.15;19.15;;;;;;;7.99;75.64;102607.47;5013295;28;20061;-74
2022/03/15 00:07:26;;;;;;;29.10;18.80;;;;;;;7.95;75.07;102608.78;5013054;28;20033;-74
2022/03/15 00:09:52;;;;;;;29.13;18.77;;;;;;;7.92;75.41;102601.03;5013129;28;20490;-74
2022/03/15 00:12:17;;;;;;;29.75;18.65;;;;;;;7.95;75.21;102608.78;4995612;28;20049;-74
2022/03/15 00:14:44;;;;;;;29.38;18.73;;;;;;;7.95;74.94;102599.88;5012048;28;20040;-74
2022/03/15 00:17:09;;;;;;;29.45;19.00;;;;;;;7.91;75.21;102596.69;5012898;28;20113;-74
2022/03/15 00:19:34;;;;;;;26.65;19.45;;;;;;;7.91;75.51;102601.19;5013277;28;20125;-74
2022/03/15 00:22:02;;;;;;;28.45;18.33;;;;;;;7.93;75.09;102597.34;5013197;28;20022;-74
2022/03/15 00:24:28;;;;;;;26.45;18.00;;;;;;;7.88;75.52;102591.63;5011948;28;20041;-74
2022/03/15 00:26:54;;;;;;;30.52;17.42;;;;;;;7.89;75.37;102593.28;5013038;28;20109;-74
2022/03/15 00:29:22;;;;;;;26.55;18.00;;;;;;;7.88;75.11;102583.53;5011059;28;20022;-74
2022/03/15 00:31:47;;;;;;;31.02;19.42;;;;;;;7.84;75.12;102592.09;5013409;28;20491;-74
2022/03/15 00:34:12;;;;;;;27.10;17.38;;;;;;;7.87;75.25;102595.31;5013238;28;20059;-74
2022/03/15 00:36:38;;;;;;;25.88;17.85;;;;;;;7.85;75.15;102594.63;5013119;28;20042;-74
2022/03/15 00:39:04;;;;;;;26.75;17.45;;;;;;;7.86;74.91;102599.00;5011820;28;20037;-74
2022/03/15 00:41:29;;;;;;;27.88;16.35;;;;;;;7.86;75.63;102592.78;5013148;28;20485;-74
2022/03/15 00:43:57;;;;;;;25.35;16.13;;;;;;;7.87;75.78;102595.31;5012787;28;20038;-74
2022/03/15 00:46:22;;;;;;;27.90;16.70;;;;;;;7.89;74.85;102592.44;5014294;28;20064;-74
2022/03/15 00:48:48;;;;;;;26.35;16.27;;;;;;;7.88;75.17;102593.44;5012576;28;20030;-74
2022/03/15 00:51:14;;;;;;;26.10;15.77;;;;;;;7.87;75.70;102586.38;5012308;28;20030;-74
2022/03/15 00:53:39;;;;;;;24.25;16.33;;;;;;;7.86;75.54;102582.81;5013067;28;20037;-74
2022/03/15 00:56:05;;;;;;;24.48;15.75;;;;;;;7.92;74.91;102587.56;5011612;28;20038;-74
2022/03/15 00:58:33;;;;;;;25.27;15.43;;;;;;;7.86;74.96;102576.59;5011978;28;20105;-74
2022/03/15 01:00:59;;;;;;;24.88;15.55;;;;;;;7.86;75.05;102571.22;5009353;28;20636;-74
2022/03/15 01:03:24;;;;;;;22.00;14.88;;;;;;;7.87;74.99;102573.75;5012181;28;20117;-74
2022/03/15 01:05:50;;;;;;;23.33;15.50;;;;;;;7.88;75.02;102575.44;5012641;28;20030;-74
2022/03/15 01:08:15;;;;;;;24.42;15.02;;;;;;;7.89;75.37;102574.41;5008609;28;20117;-74
2022/03/15 01:10:41;;;;;;;23.05;15.10;;;;;;;7.82;75.69;102570.72;5012199;28;20036;-74
2022/03/15 01:13:06;;;;;;;26.30;15.55;;;;;;;7.83;75.28;102577.78;5012480;28;20048;-74
2022/03/15 01:15:41;;;;;;;24.33;14.93;;;;;;;7.80;75.04;102578.09;5012137;28;20030;-74
2022/03/15 01:18:07;;;;;;;21.60;14.95;;;;;;;7.83;75.58;102583.16;5012453;28;20030;-74
2022/03/15 01:20:32;;;;;;;25.63;14.88;;;;;;;7.82;75.07;102578.81;5012079;28;20034;-74
2022/03/15 01:22:57;;;;;;;24.70;14.63;;;;;;;7.80;75.74;102578.97;5012051;28;20034;-74
2022/03/15 01:25:23;;;;;;;22.60;14.15;;;;;;;7.82;75.68;102576.09;5012129;28;20037;-73
2022/03/15 01:27:48;;;;;;;20.77;13.15;;;;;;;7.82;75.26;102570.72;5011742;28;20040;-74
2022/03/15 01:30:13;;;;;;;22.80;13.95;;;;;;;7.84;75.19;102568.69;5011575;28;20104;-74
2022/03/15 01:32:39;;;;;;;26.15;13.65;;;;;;;7.83;75.13;102561.59;5012192;28;20026;-74
2022/03/15 01:35:05;;;;;;;21.00;12.95;;;;;;;7.87;74.73;102562.97;5012238;28;20052;-74
2022/03/15 01:37:30;;;;;;;23.83;12.57;;;;;;;7.86;74.66;102555.88;5012133;28;20378;-74
2022/03/15 01:39:55;;;;;;;22.63;13.00;;;;;;;7.88;74.02;102558.41;5011154;28;20042;-74
2022/03/15 01:42:21;;;;;;;20.23;13.00;;;;;;;7.87;74.50;102552.19;5011499;28;20096;-74
2022/03/15 01:44:49;;;;;;;22.35;13.23;;;;;;;7.87;74.50;102546.78;5027305;28;20089;-74
2022/03/15 01:47:15;;;;;;;24.42;13.05;;;;;;;7.86;74.48;102545.09;5012042;28;20042;-74
2022/03/15 01:49:41;;;;;;;25.58;12.93;;;;;;;7.84;74.62;102543.59;5012001;28;20036;-74
2022/03/15 01:52:10;;;;;;;20.65;12.60;;;;;;;7.80;74.51;102541.22;5012532;28;20037;-74
2022/03/15 01:54:36;;;;;;;21.92;13.00;;;;;;;7.85;74.24;102540.72;5011720;28;20030;-74
2022/03/15 01:57:03;;;;;;;19.02;12.38;;;;;;;7.81;75.04;102529.41;5011851;28;20041;-74
2022/03/15 01:59:28;;;;;;;20.92;12.48;;;;;;;7.83;74.33;102540.03;5011855;28;20029;-75
2022/03/15 02:01:54;;;;;;;22.88;12.18;;;;;;;7.85;73.86;102540.72;5008528;28;20141;-73
2022/03/15 02:04:19;;;;;;;19.48;12.45;;;;;;;7.85;74.13;102540.72;5012035;28;20381;-74
2022/03/15 02:06:44;;;;;;;22.13;12.43;;;;;;;7.85;73.95;102540.72;5027079;28;20529;-74
2022/03/15 02:09:14;;;;;;;21.40;12.43;;;;;;;7.82;74.58;102543.75;5015284;28;20037;-74
2022/03/15 02:11:42;;;;;;;20.85;12.05;;;;;;;7.83;73.51;102533.81;5015962;28;20042;-74
2022/03/15 02:14:08;;;;;;;23.45;12.18;;;;;;;7.83;74.30;102540.03;5030961;28;20461;-74
2022/03/15 02:16:33;;;;;;;23.27;11.65;;;;;;;7.80;73.78;102538.53;5015465;28;20033;-75
2022/03/15 02:19:00;;;;;;;22.58;12.07;;;;;;;7.76;74.15;102525.53;5031063;28;20056;-75
2022/03/15 02:21:27;;;;;;;21.48;12.45;;;;;;;7.78;73.76;102520.84;5013657;28;20022;-75
2022/03/15 02:23:53;;;;;;;24.20;11.63;;;;;;;7.80;73.30;102518.81;5031091;28;20064;-75
2022/03/15 02:26:18;;;;;;;19.33;11.73;;;;;;;7.79;74.11;102517.97;5015584;28;20416;-74
2022/03/15 02:28:44;;;;;;;26.02;12.15;;;;;;;7.80;73.55;102508.03;5015577;28;20030;-75
2022/03/15 02:31:09;;;;;;;20.23;11.93;;;;;;;7.80;73.48;102514.28;5015192;28;20112;-75
2022/03/15 02:33:35;;;;;;;23.25;11.60;;;;;;;7.78;73.64;102505.50;5014970;28;20034;-75
2022/03/15 02:36:01;;;;;;;23.48;12.45;;;;;;;7.79;73.71;102506.38;5015209;28;20041;-75
2022/03/15 02:38:26;;;;;;;20.27;10.85;;;;;;;7.77;73.63;102516.44;5013869;28;20030;-75
2022/03/15 02:40:52;;;;;;;22.45;11.60;;;;;;;7.77;73.65;102511.06;5015764;28;20042;-75
2022/03/15 02:43:17;;;;;;;18.95;11.73;;;;;;;7.77;73.89;102516.44;5015078;28;20057;-75
2022/03/15 02:45:42;;;;;;;21.90;10.90;;;;;;;7.78;73.44;102505.50;5015398;28;20041;-75
2022/03/15 02:48:07;;;;;;;19.48;11.07;;;;;;;7.80;73.27;102510.72;5030096;28;20033;-75
2022/03/15 02:50:33;;;;;;;19.70;11.10;;;;;;;7.76;73.35;102502.13;5013844;28;20425;-74
2022/03/15 02:52:58;;;;;;;20.25;11.25;;;;;;;7.78;72.81;102494.72;5007183;28;20029;-74
2022/03/15 02:55:25;;;;;;;19.27;11.18;;;;;;;7.78;73.19;102494.72;5015166;28;20057;-75
2022/03/15 02:57:50;;;;;;;20.40;10.68;;;;;;;7.77;73.16;102492.19;5015255;28;20034;-74
2022/03/15 03:00:16;;;;;;;33.20;11.55;;;;;;;7.77;73.05;102484.09;5015140;28;20373;-75
2022/03/15 03:02:42;;;;;;;20.42;10.90;;;;;;;7.79;73.55;102491.03;5012167;28;20050;-75
2022/03/15 03:05:08;;;;;;;20.35;11.18;;;;;;;7.79;72.91;102474.03;5014915;28;20384;-74
2022/03/15 03:07:36;;;;;;;20.85;11.20;;;;;;;7.76;72.80;102480.56;5013545;28;20557;-75
2022/03/15 03:10:04;;;;;;;20.60;10.80;;;;;;;7.77;72.84;102459.84;5015089;28;20172;-75
2022/03/15 03:12:31;;;;;;;18.65;11.15;;;;;;;7.77;72.99;102459.84;5014193;28;20058;-74
2022/03/15 03:14:56;;;;;;;17.83;10.52;;;;;;;7.76;72.77;102460.84;5014667;28;20523;-75
2022/03/15 03:17:24;;;;;;;19.35;10.93;;;;;;;7.78;73.09;102458.84;5014493;28;20121;-75
2022/03/15 03:19:50;;;;;;;18.20;10.13;;;;;;;7.75;72.93;102461.88;5014006;28;20092;-75
2022/03/15 03:22:15;;;;;;;18.27;10.32;;;;;;;7.74;73.40;102458.31;5014898;28;20030;-72
2022/03/15 03:24:42;;;;;;;22.80;11.10;;;;;;;7.74;72.99;102460.19;5032644;28;20037;-75
2022/03/15 03:27:10;;;;;;;19.42;10.98;;;;;;;7.71;72.64;102449.75;5034338;28;20029;-74
2022/03/15 03:29:36;;;;;;;19.17;9.80;;;;;;;7.70;72.84;102459.69;5034186;28;20068;-72
2022/03/15 03:32:01;;;;;;;22.50;11.00;;;;;;;7.69;72.95;102454.47;5033962;28;20033;-72
2022/03/15 03:34:27;;;;;;;23.42;10.80;;;;;;;7.66;72.47;102446.72;5033646;28;20041;-77
2022/03/15 03:36:52;;;;;;;17.38;10.73;;;;;;;7.70;72.86;102448.03;5034216;28;20623;-75
2022/03/15 03:39:17;;;;;;;23.27;10.07;;;;;;;7.70;72.93;102451.59;5034592;28;20025;-75
2022/03/15 03:41:43;;;;;;;17.33;10.15;;;;;;;7.66;72.38;102444.84;5032906;28;20116;-75
2022/03/15 03:44:08;;;;;;;20.85;10.27;;;;;;;7.70;72.30;102448.91;5034326;28;20021;-75
2022/03/15 03:46:34;;;;;;;22.20;10.38;;;;;;;7.69;72.04;102458.00;5032457;28;20484;-75
2022/03/15 03:48:59;;;;;;;21.13;10.10;;;;;;;7.69;72.49;102449.06;5033917;28;20060;-75
2022/03/15 03:51:24;;;;;;;19.33;10.13;;;;;;;7.69;72.90;102451.78;5033457;28;20026;-75
2022/03/15 03:53:51;;;;;;;18.15;10.15;;;;;;;7.68;72.11;102450.06;5033828;28;20583;-75
2022/03/15 03:56:16;;;;;;;21.85;10.88;;;;;;;7.68;72.29;102447.38;5033814;28;20492;-75
2022/03/15 03:58:41;;;;;;;18.40;10.18;;;;;;;7.69;73.02;102441.81;5033814;28;20075;-75
2022/03/15 04:01:06;;;;;;;18.75;9.82;;;;;;;7.68;72.48;102442.00;5030331;28;20065;-76
2022/03/15 04:03:33;;;;;;;21.58;10.40;;;;;;;7.66;72.57;102449.41;5031695;28;20072;-75
2022/03/15 04:06:02;;;;;;;21.20;10.88;;;;;;;7.63;71.94;102447.88;5033834;28;20033;-75
2022/03/15 04:08:28;;;;;;;17.13;9.70;;;;;;;7.69;72.48;102444.53;5033245;28;20033;-75
2022/03/15 04:10:53;;;;;;;20.35;10.05;;;;;;;7.68;72.39;102444.69;5033355;28;20456;-75
2022/03/15 04:13:19;;;;;;;19.63;10.23;;;;;;;7.63;72.32;102446.03;5033461;28;20034;-75
2022/03/15 04:15:49;;;;;;;18.20;9.90;;;;;;;7.65;72.50;102450.41;5033025;28;20108;-75
2022/03/15 04:18:14;;;;;;;16.08;9.25;;;;;;;7.61;72.62;102450.75;5033485;28;20033;-75
2022/03/15 04:20:40;;;;;;;20.38;9.63;;;;;;;7.62;72.64;102447.06;5033244;28;20038;-75
2022/03/15 04:23:06;;;;;;;17.67;9.50;;;;;;;7.62;72.67;102452.44;5032223;28;20055;-75
2022/03/15 04:25:32;;;;;;;19.13;10.18;;;;;;;7.59;72.94;102458.16;5031743;28;20029;-74
2022/03/15 04:28:00;;;;;;;18.20;10.43;;;;;;;7.57;73.29;102453.94;5033095;28;20030;-75
2022/03/15 04:30:29;;;;;;;16.98;9.75;;;;;;;7.56;72.43;102458.50;5031440;28;20048;-75
2022/03/15 04:32:56;;;;;;;17.75;9.77;;;;;;;7.55;72.56;102451.41;5032721;28;20029;-75
2022/03/15 04:35:21;;;;;;;19.70;10.27;;;;;;;7.54;73.56;102455.09;5032925;28;20076;-75
2022/03/15 04:37:46;;;;;;;20.35;10.13;;;;;;;7.53;72.93;102448.00;5031786;28;20030;-75
2022/03/15 04:40:12;;;;;;;20.90;10.38;;;;;;;7.51;73.28;102450.03;5032967;28;20381;-75
2022/03/15 04:42:38;;;;;;;19.20;10.23;;;;;;;7.49;73.12;102452.06;5015053;28;20040;-75
2022/03/15 04:45:04;;;;;;;20.38;10.57;;;;;;;7.49;73.85;102443.13;5032915;28;20029;-74
2022/03/15 04:47:29;;;;;;;18.88;10.18;;;;;;;7.50;73.39;102434.88;5031207;28;20052;-74
2022/03/15 04:49:55;;;;;;;20.65;10.50;;;;;;;7.48;73.33;102439.59;5032751;28;20456;-74
2022/03/15 04:52:20;;;;;;;15.88;10.13;;;;;;;7.44;73.46;102438.25;5032804;28;20116;-74
2022/03/15 04:54:45;;;;;;;20.23;11.07;;;;;;;7.49;72.86;102435.03;5031888;28;20068;-74
2022/03/15 04:57:11;;;;;;;19.40;10.85;;;;;;;7.45;73.04;102432.69;5032956;28;20037;-74
2022/03/15 04:59:36;;;;;;;17.48;9.95;;;;;;;7.48;73.91;102433.38;5032173;28;20033;-74
2022/03/15 05:02:02;;;;;;;20.10;9.93;;;;;;;7.50;73.03;102431.34;5030145;28;20029;-74
2022/03/15 05:04:27;;;;;;;17.13;9.93;;;;;;;7.43;73.29;102429.31;5031767;28;20091;-74
2022/03/15 05:06:56;;;;;;;22.00;10.23;;;;;;;7.47;73.63;102423.59;5032486;28;20037;-74
2022/03/15 05:09:24;;;;;;;18.42;10.65;;;;;;;7.45;72.68;102424.59;5032774;28;20059;-75
2022/03/15 05:11:49;;;;;;;21.48;10.95;;;;;;;7.45;72.90;102426.47;5032509;28;20029;-74
2022/03/15 05:14:15;;;;;;;17.77;10.15;;;;;;;7.43;73.21;102425.81;5032569;28;20475;-75
2022/03/15 05:16:40;;;;;;;19.98;10.63;;;;;;;7.42;73.02;102421.41;5032209;28;20472;-74
2022/03/15 05:19:05;;;;;;;17.80;10.55;;;;;;;7.42;73.21;102421.41;5014831;28;20029;-74
2022/03/15 05:21:31;;;;;;;17.13;10.15;;;;;;;7.44;73.83;102419.38;5031401;28;20116;-74
2022/03/15 05:23:57;;;;;;;17.38;10.20;;;;;;;7.41;72.68;102407.13;5032542;28;20100;-74
2022/03/15 05:26:23;;;;;;;17.83;10.40;;;;;;;7.43;73.09;102420.41;5032172;28;20104;-74
2022/03/15 05:28:49;;;;;;;19.73;9.65;;;;;;;7.41;73.60;102422.41;5030686;28;20384;-74
2022/03/15 05:31:19;;;;;;;19.35;9.57;;;;;;;7.40;73.54;102420.75;5031942;28;20389;-74
2022/03/15 05:33:46;;;;;;;15.02;9.73;;;;;;;7.41;72.91;102422.41;5030350;28;20033;-74
2022/03/15 05:36:11;;;;;;;17.30;9.77;;;;;;;7.43;73.01;102409.63;5032191;28;20099;-75
2022/03/15 05:38:37;;;;;;;17.88;9.35;;;;;;;7.41;73.35;102411.63;5032474;28;20029;-74
2022/03/15 05:41:02;;;;;;;19.88;10.20;;;;;;;7.41;73.34;102406.25;5032135;28;20507;-75
2022/03/15 05:43:28;;;;;;;16.65;9.57;;;;;;;7.42;73.01;102405.25;5034273;28;20029;-75
2022/03/15 05:45:53;;;;;;;17.42;10.02;;;;;;;7.37;73.57;102400.38;5036156;28;20050;-75
2022/03/15 05:48:19;;;;;;;17.40;9.98;;;;;;;7.33;73.45;102396.31;5035527;28;20033;-74
2022/03/15 05:50:44;;;;;;;18.83;10.35;;;;;;;7.33;73.20;102392.78;5035792;28;20037;-74
2022/03/15 05:53:10;;;;;;;20.95;10.52;;;;;;;7.30;73.72;102393.94;5034890;28;20036;-75
2022/03/15 05:55:36;;;;;;;18.58;10.50;;;;;;;7.34;73.12;102389.09;5035452;28;20431;-75
2022/03/15 05:58:02;;;;;;;19.80;9.93;;;;;;;7.37;73.38;102396.84;5036391;28;20595;-75
2022/03/15 06:00:28;;;;;;;21.30;10.05;;;;;;;7.37;73.77;102394.16;5034293;28;20443;-75
2022/03/15 06:02:54;;;;;;;18.73;10.23;;;;;;;7.36;73.79;102392.44;5033081;28;20144;-75
2022/03/15 06:05:20;;;;;;;21.67;10.63;;;;;;;7.36;74.36;102387.91;5034404;28;20120;-75
2022/03/15 06:07:47;;;;;;;18.23;9.95;;;;;;;7.36;74.04;102395.16;5035833;28;20061;-75
2022/03/15 06:10:13;;;;;;;18.63;10.73;;;;;;;7.34;73.69;102394.47;5035761;28;20120;-75
2022/03/15 06:12:39;;;;;;;18.10;10.32;;;;;;;7.29;73.45;102394.94;5035425;28;20056;-75
2022/03/15 06:15:04;;;;;;;22.05;10.50;;;;;;;7.29;74.34;102389.56;5036089;28;20453;-74
2022/03/15 06:17:32;;;;;;;18.98;10.18;;;;;;;7.26;73.63;102393.44;5035578;28;20044;-75
2022/03/15 06:19:57;;;;;;;18.42;11.05;;;;;;;7.26;73.82;102385.38;5035614;28;20033;-74
2022/03/15 06:22:23;;;;;;;19.00;10.73;;;;;;;7.26;74.37;102385.38;5034232;28;20064;-75
2022/03/15 06:24:48;;;;;;;21.48;11.18;;;;;;;7.28;73.48;102385.19;5017702;28;20349;-75
2022/03/15 06:27:13;;;;;;;23.15;11.43;;;;;;;7.31;73.89;102386.69;5035479;28;20072;-74
2022/03/15 06:29:39;;;;;;;22.02;11.07;;;;;;;7.30;74.41;102393.13;5035593;28;20021;-74
2022/03/15 06:32:04;;;;;;;19.95;10.25;;;;;;;7.33;73.67;102392.78;5034811;28;20458;-74
2022/03/15 06:34:29;;;;;;;19.70;10.27;;;;;;;7.32;73.45;102391.09;5035198;28;20026;-74
2022/03/15 06:36:55;;;;;;;22.58;11.13;;;;;;;7.32;73.54;102391.09;5034796;28;20044;-74
2022/03/15 06:39:20;;;;;;;19.90;10.65;;;;;;;7.32;74.26;102385.69;5027749;28;20072;-75
2022/03/15 06:41:46;;;;;;;19.52;10.50;;;;;;;7.32;74.23;102383.84;5035096;28;20041;-74
2022/03/15 06:44:11;;;;;;;17.90;10.38;;;;;;;7.32;73.75;102380.31;5035235;28;20484;-75
2022/03/15 06:46:37;;;;;;;21.05;10.20;;;;;;;7.32;74.04;102372.25;5034644;28;20061;-74
2022/03/15 06:49:05;;;;;;;22.70;10.35;;;;;;;7.26;73.47;102377.28;5035146;28;20388;-75
2022/03/15 06:51:30;;;;;;;20.05;10.30;;;;;;;7.28;73.60;102363.66;5033774;28;20387;-75
2022/03/15 06:53:56;;;;;;;21.23;10.55;;;;;;;7.33;73.51;102365.84;5034753;28;20026;-75
2022/03/15 06:56:21;;;;;;;20.40;10.50;;;;;;;7.33;73.53;102363.16;5034202;28;20443;-75
2022/03/15 06:58:48;;;;;;;17.05;10.50;;;;;;;7.33;73.59;102361.28;5034678;28;20033;-74
2022/03/15 07:01:13;;;;;;;20.00;10.65;;;;;;;7.37;73.50;102351.88;5031398;28;20038;-75
2022/03/15 07:03:38;;;;;;;20.80;10.77;;;;;;;7.36;73.45;102365.53;5033141;28;20033;-75
2022/03/15 07:06:04;;;;;;;22.80;11.10;;;;;;;7.44;72.87;102360.13;5017197;28;20049;-75
2022/03/15 07:08:32;;;;;;;25.77;10.52;;;;;;;7.40;72.61;102361.50;5034904;28;20030;-73
2022/03/15 07:10:57;;;;;;;21.83;10.52;;;;;;;7.42;73.16;102359.47;5034536;28;20033;-73
2022/03/15 07:13:23;;;;;;;23.98;9.93;;;;;;;7.43;72.69;102355.78;5033276;28;20116;-74
2022/03/15 07:15:48;;;;;;;16.85;9.32;;;;;;;7.44;72.72;102362.81;5016511;28;20045;-73
2022/03/15 07:18:15;;;;;;;21.00;9.10;;;;;;;7.45;72.32;102359.13;5034170;28;20469;-76
2022/03/15 07:20:41;;;;;;;21.73;9.52;;;;;;;7.46;72.46;102358.13;5016249;28;20033;-75
2022/03/15 07:23:06;;;;;;;18.55;9.65;;;;;;;7.50;72.43;102356.75;5034806;28;20029;-76
2022/03/15 07:25:32;;;;;;;18.88;9.82;;;;;;;7.51;72.78;102358.47;5034333;28;20488;-77
2022/03/15 07:27:57;;;;;;;18.42;9.38;;;;;;;7.56;71.98;102353.44;5015542;28;20025;-76
2022/03/15 07:30:23;;;;;;;19.40;9.27;;;;;;;7.57;72.49;102352.41;5034270;28;20037;-80
2022/03/15 07:32:48;;;;;;;15.95;8.30;;;;;;;7.63;72.63;102358.97;5033835;28;20041;-79
2022/03/15 07:35:14;;;;;;;18.70;9.10;;;;;;;7.61;71.40;102348.38;5034210;28;20361;-76
2022/03/15 07:37:55;;;;;;;14.43;8.27;;;;;;;7.65;71.72;102351.56;5033453;28;20037;-75
2022/03/15 07:40:21;;;;;;;16.23;8.32;;;;;;;7.68;72.25;102359.28;5033155;28;20033;-75
2022/03/15 07:42:46;;;;;;;19.08;8.40;;;;;;;7.66;71.87;102345.16;5031909;28;20484;-75
2022/03/15 07:45:14;;;;;;;15.57;8.38;;;;;;;7.65;71.57;102350.72;5033762;28;20040;-75
2022/03/15 07:47:40;;;;;;;20.42;8.70;;;;;;;7.65;71.36;102353.41;5033580;28;20123;-75
2022/03/15 07:50:06;;;;;;;14.88;8.02;;;;;;;7.67;72.19;102351.38;5032665;28;20045;-75
2022/03/15 07:52:32;;;;;;;20.50;8.98;;;;;;;7.65;71.92;102351.56;4999311;28;20034;-75
2022/03/15 07:54:57;;;;;;;16.50;8.82;;;;;;;7.71;71.83;102347.34;5033531;28;20075;-76
2022/03/15 07:57:22;;;;;;;20.25;8.05;;;;;;;7.69;71.11;102344.81;5034009;28;20480;-75
2022/03/15 07:59:48;;;;;;;21.95;8.73;;;;;;;7.70;71.84;102345.66;5027080;28;20044;-75
2022/03/15 08:02:15;;;;;;;21.67;8.98;;;;;;;7.72;71.80;102347.19;5039693;28;20045;-75
2022/03/15 08:04:41;;;;;;;18.75;8.38;;;;;;;7.77;71.68;102341.28;5033626;28;20045;-75
2022/03/15 08:07:06;;;;;;;21.35;8.40;;;;;;;7.76;71.50;102329.66;5015223;28;20057;-75
2022/03/15 08:09:32;;;;;;;20.17;8.52;;;;;;;7.76;71.71;102332.38;5033230;28;20053;-75
2022/03/15 08:11:57;;;;;;;20.60;8.32;;;;;;;7.77;70.97;102327.81;5015405;28;20472;-75
2022/03/15 08:14:24;;;;;;;14.20;7.97;;;;;;;7.80;70.80;102328.31;5032698;28;20492;-74
2022/03/15 08:16:49;;;;;;;20.17;7.95;;;;;;;7.83;72.13;102319.03;5032484;28;20120;-78
2022/03/15 08:19:21;;;;;;;17.98;7.72;;;;;;;7.84;71.19;102323.41;5033621;28;20021;-83
2022/03/15 08:21:46;;;;;;;;;;;;;;;8.01;70.91;102318.00;5015761;28;20087;-76
2022/03/15 08:24:11;;;;;;;18.27;7.95;;;;;;;7.97;70.98;102315.66;5015513;28;19921;-74
2022/03/15 08:26:40;;;;;;;15.50;6.78;;;;;;;7.92;70.11;102317.19;5032664;28;20033;-75
2022/03/15 08:29:06;;;;;;;14.68;7.13;;;;;;;7.99;70.74;102316.31;5048289;28;20037;-77
2022/03/15 08:31:32;;;;;;;17.92;6.75;;;;;;;7.99;70.63;102319.00;5033058;28;20112;-76
2022/03/15 08:33:57;;;;;;;14.15;6.90;;;;;;;8.01;70.89;102316.13;5031470;28;20108;-76
2022/03/15 08:36:23;;;;;;;14.35;6.88;;;;;;;8.09;70.32;102312.59;5033459;28;20064;-75
2022/03/15 08:38:48;;;;;;;18.98;6.57;;;;;;;8.11;71.15;102316.78;5033040;28;20036;-74
2022/03/15 08:41:13;;;;;;;14.13;6.85;;;;;;;8.14;69.65;102315.63;5029007;28;20025;-71
2022/03/15 08:43:39;;;;;;;15.25;6.28;;;;;;;8.18;70.13;102306.16;5037885;28;20068;-72
2022/03/15 08:46:04;;;;;;;14.07;6.32;;;;;;;8.21;70.28;102313.06;5046494;28;20571;-74
2022/03/15 08:48:29;;;;;;;16.15;6.65;;;;;;;8.25;70.62;102307.16;5032875;28;20037;-75
2022/03/15 08:50:55;;;;;;;13.52;6.65;;;;;;;8.28;69.49;102309.50;5031919;28;20045;-76
2022/03/15 08:53:20;;;;;;;13.73;6.55;;;;;;;8.27;69.16;102307.81;5032166;28;20029;-74
2022/03/15 08:55:46;;;;;;;15.82;6.18;;;;;;;8.31;70.25;102305.63;5031529;28;20469;-75
2022/03/15 08:58:11;;;;;;;13.52;5.82;;;;;;;8.39;70.17;102307.44;5032222;28;20409;-72
2022/03/15 09:00:36;;;;;;;14.63;6.18;;;;;;;8.40;69.61;102296.47;5028721;28;20045;-74
2022/03/15 09:03:02;;;;;;;13.43;5.95;;;;;;;8.44;70.04;102302.38;5036215;28;20110;-73
2022/03/15 09:05:27;;;;;;;16.08;5.47;;;;;;;8.48;69.63;102298.31;5052562;28;20039;-73
2022/03/15 09:07:53;;;;;;;12.68;5.60;;;;;;;8.50;69.08;102288.22;5037889;28;20044;-73
2022/03/15 09:10:23;;;;;;;14.35;6.15;;;;;;;8.54;69.29;102286.81;5032251;28;20036;-73
2022/03/15 09:12:49;;;;;;;17.92;6.05;;;;;;;8.51;69.74;102279.94;5031145;28;20038;-71
2022/03/15 09:15:16;;;;;;;13.48;5.85;;;;;;;8.57;68.55;102282.94;5032050;28;20458;-75
2022/03/15 09:17:41;;;;;;;18.13;5.70;;;;;;;8.57;69.65;102289.16;5031411;28;20030;-79
2022/03/15 09:20:08;;;;;;;15.70;6.22;;;;;;;8.61;69.03;102284.28;5032571;28;20535;-71
2022/03/15 09:22:34;;;;;;;15.13;6.30;;;;;;;8.62;69.02;102285.94;5032233;28;20053;-77
2022/03/15 09:25:00;;;;;;;14.40;5.38;;;;;;;8.71;69.25;102294.84;5014164;28;20033;-73
2022/03/15 09:27:25;;;;;;;12.43;5.72;;;;;;;8.73;68.52;102298.22;5014798;28;20029;-71
2022/03/15 09:29:50;;;;;;;15.65;5.85;;;;;;;8.77;68.18;102295.00;5032039;28;20457;-74
2022/03/15 09:32:16;;;;;;;13.73;5.53;;;;;;;8.78;69.08;102295.81;5032184;28;20029;-73
2022/03/15 09:34:43;;;;;;;16.20;5.55;;;;;;;8.82;68.79;102297.16;5032130;28;20090;-74
2022/03/15 09:37:08;;;;;;;11.50;5.88;;;;;;;8.86;68.93;102303.84;5011214;28;20026;-72
2022/03/15 09:39:34;;;;;;;16.98;6.18;;;;;;;8.86;68.14;102287.66;5043165;28;20040;-71
2022/03/15 09:42:00;;;;;;;14.23;5.82;;;;;;;8.94;68.53;102292.19;5052055;28;20391;-73
2022/03/15 09:44:28;;;;;;;12.18;5.65;;;;;;;8.98;68.58;102296.19;5052131;28;20032;-73
2022/03/15 09:46:58;;;;;;;17.88;5.90;;;;;;;9.00;68.13;102295.00;5042067;28;20136;-74
2022/03/15 09:49:25;;;;;;;12.48;5.72;;;;;;;9.02;68.01;102292.94;5032179;28;20460;-74
2022/03/15 09:51:51;;;;;;;16.63;5.97;;;;;;;9.05;66.96;102289.91;5031983;28;20030;-80
2022/03/15 09:54:17;;;;;;;23.00;6.05;;;;;;;9.07;66.18;102288.88;5014438;28;20041;-74
2022/03/15 09:56:43;;;;;;;15.52;6.00;;;;;;;9.08;67.52;102287.88;5030113;28;20041;-78
2022/03/15 09:59:19;;;;;;;12.00;6.07;;;;;;;9.13;67.04;102290.88;5047497;28;20036;-78
2022/03/15 10:01:50;;;;;;;18.05;6.93;;;;;;;9.13;66.96;102285.47;5028086;28;20046;-74
2022/03/15 10:04:16;;;;;;;20.45;6.93;;;;;;;9.14;68.30;102285.28;5032035;28;20029;-76
2022/03/15 10:06:42;;;;;;;15.60;6.80;;;;;;;9.16;68.03;102280.56;5030697;28;20067;-77
2022/03/15 10:09:08;;;;;;;12.68;6.45;;;;;;;9.17;67.47;102282.22;5046993;28;20427;-75
2022/03/15 10:11:35;;;;;;;15.80;7.50;;;;;;;9.22;67.18;102273.56;5030728;28;20044;-74
2022/03/15 10:14:04;;;;;;;22.63;6.63;;;;;;;9.28;67.61;102266.59;5014013;28;20033;-74
2022/03/15 10:16:32;;;;;;;13.90;6.45;;;;;;;9.35;67.45;102270.28;5013876;28;20029;-76
2022/03/15 10:18:58;;;;;;;12.10;6.25;;;;;;;9.40;67.89;102274.13;5030441;28;20037;-76
2022/03/15 10:21:37;;;;;;;14.70;5.55;;;;;;;9.47;66.00;102265.28;5031542;28;20033;-76
2022/03/15 10:24:05;;;;;;;10.82;5.70;;;;;;;9.50;65.94;102256.81;5013835;28;20108;-76
2022/03/15 10:26:31;;;;;;;19.50;6.53;;;;;;;9.55;66.59;102263.31;5031657;28;20057;-78
2022/03/15 10:28:57;;;;;;;13.90;6.03;;;;;;;9.59;66.73;102266.50;5032549;28;20483;-76
2022/03/15 10:31:24;;;;;;;16.55;6.35;;;;;;;9.60;66.34;102257.34;5035378;28;20034;-78
2022/03/15 10:33:54;;;;;;;16.50;5.90;;;;;;;9.66;66.30;102251.25;5035092;28;20052;-75
2022/03/15 10:36:21;;;;;;;20.50;6.25;;;;;;;9.70;65.28;102249.00;5035437;28;20040;-74
2022/03/15 10:38:48;;;;;;;15.98;5.93;;;;;;;9.72;65.72;102247.81;5035242;28;20040;-75
2022/03/15 10:41:15;;;;;;;11.55;5.50;;;;;;;9.78;66.12;102248.06;5035682;28;20091;-77
2022/03/15 10:43:41;;;;;;;14.57;5.95;;;;;;;9.80;65.77;102241.47;5035612;28;20036;-76
2022/03/15 10:46:10;;;;;;;15.68;6.10;;;;;;;9.83;66.46;102234.81;5034369;28;20053;-75
2022/03/15 10:48:36;;;;;;;14.07;5.60;;;;;;;9.85;64.64;102227.38;5033298;28;20424;-71
2022/03/15 10:51:13;;;;;;;17.75;5.70;;;;;;;9.88;66.15;102233.25;5034934;28;20032;-74
2022/03/15 10:53:45;;;;;;;16.20;5.63;;;;;;;9.89;65.42;102232.22;5033818;28;20543;-77
2022/03/15 10:56:22;;;;;;;17.63;6.72;;;;;;;9.93;65.76;102229.97;5034692;28;20076;-73
2022/03/15 10:58:51;;;;;;;15.02;5.70;;;;;;;9.97;65.34;102219.66;5035195;28;20036;-81
2022/03/15 11:01:18;;;;;;;12.85;5.03;;;;;;;10.05;65.18;102225.78;5031488;28;20384;-71
2022/03/15 11:03:53;;;;;;;18.63;5.30;;;;;;;10.10;65.83;102220.66;5033726;28;20053;-78
2022/03/15 11:06:38;;;;;;;15.20;5.40;;;;;;;10.10;65.86;102222.53;5035045;28;20071;-76
2022/03/15 11:09:27;;;;;;;10.10;5.00;;;;;;;10.09;64.94;102218.13;5016785;28;20026;-72
2022/03/15 11:12:04;;;;;;;11.77;5.05;;;;;;;10.04;65.18;102218.72;5034517;28;20033;-70
2022/03/15 11:14:49;;;;;;;13.63;5.40;;;;;;;10.04;65.21;102207.03;5034622;28;20076;-74
2022/03/15 11:17:22;;;;;;;12.88;5.25;;;;;;;10.10;66.10;102209.84;5016921;28;20366;-73